sensor_id;sensor_type;location;lat;lon;timestamp;P1;durP1;ratioP1;P2;durP2;ratioP2
44304;SDS011;30019;50.576;8.568;2022-12-18T00:00:44;68.15;;;22.35;;
44304;SDS011;30019;50.576;8.568;2022-12-18T00:03:12;73.18;;;23.38;;
44304;SDS011;30019;50.576;8.568;2022-12-18T00:05:45;67.28;;;22.75;;
44304;SDS011;30019;50.576;8.568;2022-12-18T00:08:12;51.75;;;17.80;;
44304;SDS011;30019;50.576;8.568;2022-12-18T00:10:38;56.67;;;18.95;;
44304;SDS011;30019;50.576;8.568;2022-12-18T00:13:03;51.03;;;18.20;;
44304;SDS011;30019;50.576;8.568;2022-12-18T00:15:29;48.28;;;18.45;;
44304;SDS011;30019;50.576;8.568;2022-12-18T00:17:54;53.35;;;19.15;;
44304;SDS011;30019;50.576;8.568;2022-12-18T00:20:20;53.92;;;18.62;;
44304;SDS011;30019;50.576;8.568;2022-12-18T00:22:50;55.90;;;18.62;;
44304;SDS011;30019;50.576;8.568;2022-12-18T00:25:16;51.30;;;17.48;;
44304;SDS011;30019;50.576;8.568;2022-12-18T00:27:42;49.58;;;17.80;;
44304;SDS011;30019;50.576;8.568;2022-12-18T00:30:08;45.45;;;17.17;;
44304;SDS011;30019;50.576;8.568;2022-12-18T00:32:34;52.17;;;18.52;;
44304;SDS011;30019;50.576;8.568;2022-12-18T00:34:59;48.53;;;17.67;;
44304;SDS011;30019;50.576;8.568;2022-12-18T00:37:25;48.55;;;17.50;;
44304;SDS011;30019;50.576;8.568;2022-12-18T00:39:51;51.35;;;17.83;;
44304;SDS011;30019;50.576;8.568;2022-12-18T00:42:16;54.78;;;19.02;;
44304;SDS011;30019;50.576;8.568;2022-12-18T00:45:01;56.13;;;18.20;;
44304;SDS011;30019;50.576;8.568;2022-12-18T00:47:26;48.58;;;17.70;;
44304;SDS011;30019;50.576;8.568;2022-12-18T00:49:52;54.97;;;18.30;;
44304;SDS011;30019;50.576;8.568;2022-12-18T00:52:17;49.63;;;16.75;;
44304;SDS011;30019;50.576;8.568;2022-12-18T00:54:43;50.63;;;17.70;;
44304;SDS011;30019;50.576;8.568;2022-12-18T00:57:08;55.40;;;20.23;;
44304;SDS011;30019;50.576;8.568;2022-12-18T00:59:34;56.22;;;17.67;;
44304;SDS011;30019;50.576;8.568;2022-12-18T01:01:59;55.83;;;18.40;;
44304;SDS011;30019;50.576;8.568;2022-12-18T01:04:25;52.92;;;18.45;;
44304;SDS011;30019;50.576;8.568;2022-12-18T01:06:51;55.22;;;17.98;;
44304;SDS011;30019;50.576;8.568;2022-12-18T01:09:16;61.03;;;19.77;;
44304;SDS011;30019;50.576;8.568;2022-12-18T01:11:42;58.63;;;19.62;;
44304;SDS011;30019;50.576;8.568;2022-12-18T01:14:07;55.70;;;19.20;;
44304;SDS011;30019;50.576;8.568;2022-12-18T01:16:33;50.12;;;18.12;;
44304;SDS011;30019;50.576;8.568;2022-12-18T01:18:59;54.00;;;17.73;;
44304;SDS011;30019;50.576;8.568;2022-12-18T01:21:24;59.58;;;20.08;;
44304;SDS011;30019;50.576;8.568;2022-12-18T01:23:51;51.05;;;18.35;;
44304;SDS011;30019;50.576;8.568;2022-12-18T01:26:20;57.58;;;19.45;;
44304;SDS011;30019;50.576;8.568;2022-12-18T01:28:46;50.97;;;17.27;;
44304;SDS011;30019;50.576;8.568;2022-12-18T01:31:19;49.63;;;18.12;;
44304;SDS011;30019;50.576;8.568;2022-12-18T01:33:50;48.53;;;17.05;;
44304;SDS011;30019;50.576;8.568;2022-12-18T01:36:17;46.60;;;17.85;;
44304;SDS011;30019;50.576;8.568;2022-12-18T01:38:48;52.05;;;18.25;;
44304;SDS011;30019;50.576;8.568;2022-12-18T01:41:17;49.90;;;17.40;;
44304;SDS011;30019;50.576;8.568;2022-12-18T01:43:53;55.45;;;18.15;;
44304;SDS011;30019;50.576;8.568;2022-12-18T01:46:22;52.70;;;16.77;;
44304;SDS011;30019;50.576;8.568;2022-12-18T01:48:49;52.05;;;17.05;;
44304;SDS011;30019;50.576;8.568;2022-12-18T01:51:17;54.85;;;18.37;;
44304;SDS011;30019;50.576;8.568;2022-12-18T01:53:43;52.33;;;18.90;;
44304;SDS011;30019;50.576;8.568;2022-12-18T01:56:18;59.58;;;19.87;;
44304;SDS011;30019;50.576;8.568;2022-12-18T02:01:27;50.67;;;19.17;;
44304;SDS011;30019;50.576;8.568;2022-12-18T02:03:55;49.08;;;18.05;;
44304;SDS011;30019;50.576;8.568;2022-12-18T02:08:58;49.70;;;17.40;;
44304;SDS011;30019;50.576;8.568;2022-12-18T02:16:51;62.05;;;18.45;;
44304;SDS011;30019;50.576;8.568;2022-12-18T02:27:35;54.60;;;18.33;;
44304;SDS011;30019;50.576;8.568;2022-12-18T02:30:04;58.40;;;19.02;;
44304;SDS011;30019;50.576;8.568;2022-12-18T02:32:31;53.63;;;17.20;;
44304;SDS011;30019;50.576;8.568;2022-12-18T02:35:01;52.13;;;17.62;;
44304;SDS011;30019;50.576;8.568;2022-12-18T02:37:29;52.38;;;17.87;;
44304;SDS011;30019;50.576;8.568;2022-12-18T02:39:57;52.65;;;18.48;;
44304;SDS011;30019;50.576;8.568;2022-12-18T02:42:24;56.60;;;18.15;;
44304;SDS011;30019;50.576;8.568;2022-12-18T02:44:52;53.22;;;16.70;;
44304;SDS011;30019;50.576;8.568;2022-12-18T02:47:19;52.92;;;17.48;;
44304;SDS011;30019;50.576;8.568;2022-12-18T02:49:56;48.20;;;17.15;;
44304;SDS011;30019;50.576;8.568;2022-12-18T02:54:57;56.15;;;18.05;;
44304;SDS011;30019;50.576;8.568;2022-12-18T02:57:47;51.30;;;17.33;;
44304;SDS011;30019;50.576;8.568;2022-12-18T03:00:43;54.50;;;18.80;;
44304;SDS011;30019;50.576;8.568;2022-12-18T03:03:24;49.47;;;17.15;;
44304;SDS011;30019;50.576;8.568;2022-12-18T03:06:10;46.83;;;17.20;;
44304;SDS011;30019;50.576;8.568;2022-12-18T03:08:44;45.97;;;15.80;;
44304;SDS011;30019;50.576;8.568;2022-12-18T03:11:14;51.00;;;18.08;;
44304;SDS011;30019;50.576;8.568;2022-12-18T03:13:42;46.03;;;17.02;;
44304;SDS011;30019;50.576;8.568;2022-12-18T03:16:12;46.10;;;16.00;;
44304;SDS011;30019;50.576;8.568;2022-12-18T03:18:44;43.70;;;15.73;;
44304;SDS011;30019;50.576;8.568;2022-12-18T03:21:15;47.30;;;15.32;;
44304;SDS011;30019;50.576;8.568;2022-12-18T03:23:45;50.88;;;15.80;;
44304;SDS011;30019;50.576;8.568;2022-12-18T03:26:15;40.95;;;15.40;;
44304;SDS011;30019;50.576;8.568;2022-12-18T03:28:49;41.22;;;15.82;;
44304;SDS011;30019;50.576;8.568;2022-12-18T03:31:18;40.45;;;13.45;;
44304;SDS011;30019;50.576;8.568;2022-12-18T03:33:51;35.90;;;13.10;;
44304;SDS011;30019;50.576;8.568;2022-12-18T03:36:17;36.53;;;12.75;;
44304;SDS011;30019;50.576;8.568;2022-12-18T03:38:43;38.65;;;13.75;;
44304;SDS011;30019;50.576;8.568;2022-12-18T03:41:19;34.13;;;12.40;;
44304;SDS011;30019;50.576;8.568;2022-12-18T03:43:58;36.45;;;13.52;;
44304;SDS011;30019;50.576;8.568;2022-12-18T03:46:48;37.42;;;13.50;;
44304;SDS011;30019;50.576;8.568;2022-12-18T03:49:35;41.65;;;15.02;;
44304;SDS011;30019;50.576;8.568;2022-12-18T03:52:36;38.97;;;13.88;;
44304;SDS011;30019;50.576;8.568;2022-12-18T03:55:22;37.28;;;14.35;;
44304;SDS011;30019;50.576;8.568;2022-12-18T03:57:50;39.72;;;14.23;;
44304;SDS011;30019;50.576;8.568;2022-12-18T04:00:17;44.88;;;14.35;;
44304;SDS011;30019;50.576;8.568;2022-12-18T04:02:45;41.88;;;15.18;;
44304;SDS011;30019;50.576;8.568;2022-12-18T04:05:17;34.97;;;12.70;;
44304;SDS011;30019;50.576;8.568;2022-12-18T04:07:45;45.42;;;15.45;;
44304;SDS011;30019;50.576;8.568;2022-12-18T04:10:12;43.97;;;16.65;;
44304;SDS011;30019;50.576;8.568;2022-12-18T04:12:40;49.55;;;16.80;;
44304;SDS011;30019;50.576;8.568;2022-12-18T04:15:06;39.80;;;14.43;;
44304;SDS011;30019;50.576;8.568;2022-12-18T04:17:33;41.37;;;14.50;;
44304;SDS011;30019;50.576;8.568;2022-12-18T04:19:58;42.33;;;15.45;;
44304;SDS011;30019;50.576;8.568;2022-12-18T04:22:24;39.67;;;13.77;;
44304;SDS011;30019;50.576;8.568;2022-12-18T04:24:49;37.30;;;13.05;;
44304;SDS011;30019;50.576;8.568;2022-12-18T04:27:15;39.10;;;12.82;;
44304;SDS011;30019;50.576;8.568;2022-12-18T04:29:40;43.00;;;14.55;;
44304;SDS011;30019;50.576;8.568;2022-12-18T04:32:06;41.88;;;14.98;;
44304;SDS011;30019;50.576;8.568;2022-12-18T04:34:32;41.83;;;15.30;;
44304;SDS011;30019;50.576;8.568;2022-12-18T04:36:58;43.22;;;14.48;;
44304;SDS011;30019;50.576;8.568;2022-12-18T04:39:23;39.08;;;13.90;;
44304;SDS011;30019;50.576;8.568;2022-12-18T04:41:49;36.67;;;13.80;;
44304;SDS011;30019;50.576;8.568;2022-12-18T04:44:14;41.40;;;13.65;;
44304;SDS011;30019;50.576;8.568;2022-12-18T04:46:40;36.85;;;14.25;;
44304;SDS011;30019;50.576;8.568;2022-12-18T04:49:06;34.80;;;13.30;;
44304;SDS011;30019;50.576;8.568;2022-12-18T04:51:32;45.05;;;16.00;;
44304;SDS011;30019;50.576;8.568;2022-12-18T04:53:57;33.75;;;13.02;;
44304;SDS011;30019;50.576;8.568;2022-12-18T04:56:23;38.75;;;14.75;;
44304;SDS011;30019;50.576;8.568;2022-12-18T04:58:48;39.67;;;14.45;;
44304;SDS011;30019;50.576;8.568;2022-12-18T05:01:15;42.62;;;15.27;;
44304;SDS011;30019;50.576;8.568;2022-12-18T05:03:42;43.35;;;16.80;;
44304;SDS011;30019;50.576;8.568;2022-12-18T05:06:08;47.62;;;15.77;;
44304;SDS011;30019;50.576;8.568;2022-12-18T05:08:34;38.35;;;14.10;;
44304;SDS011;30019;50.576;8.568;2022-12-18T05:11:07;36.97;;;13.60;;
44304;SDS011;30019;50.576;8.568;2022-12-18T05:13:35;42.55;;;13.60;;
44304;SDS011;30019;50.576;8.568;2022-12-18T05:16:01;42.20;;;13.70;;
44304;SDS011;30019;50.576;8.568;2022-12-18T05:18:28;37.00;;;13.77;;
44304;SDS011;30019;50.576;8.568;2022-12-18T05:20:54;34.10;;;13.88;;
44304;SDS011;30019;50.576;8.568;2022-12-18T05:23:21;39.08;;;13.98;;
44304;SDS011;30019;50.576;8.568;2022-12-18T05:25:57;41.60;;;14.98;;
44304;SDS011;30019;50.576;8.568;2022-12-18T05:28:26;36.75;;;13.62;;
44304;SDS011;30019;50.576;8.568;2022-12-18T05:30:53;41.50;;;15.52;;
44304;SDS011;30019;50.576;8.568;2022-12-18T05:33:20;45.17;;;14.25;;
44304;SDS011;30019;50.576;8.568;2022-12-18T05:35:51;39.78;;;14.13;;
44304;SDS011;30019;50.576;8.568;2022-12-18T05:38:18;46.45;;;15.38;;
44304;SDS011;30019;50.576;8.568;2022-12-18T05:40:45;37.05;;;14.05;;
44304;SDS011;30019;50.576;8.568;2022-12-18T05:43:11;43.63;;;16.17;;
44304;SDS011;30019;50.576;8.568;2022-12-18T05:45:37;36.75;;;13.88;;
44304;SDS011;30019;50.576;8.568;2022-12-18T05:48:04;40.55;;;13.77;;
44304;SDS011;30019;50.576;8.568;2022-12-18T05:50:30;40.92;;;14.93;;
44304;SDS011;30019;50.576;8.568;2022-12-18T05:52:58;52.95;;;15.82;;
44304;SDS011;30019;50.576;8.568;2022-12-18T05:55:23;42.60;;;16.08;;
44304;SDS011;30019;50.576;8.568;2022-12-18T05:57:49;45.67;;;15.95;;
44304;SDS011;30019;50.576;8.568;2022-12-18T06:00:15;42.53;;;14.48;;
44304;SDS011;30019;50.576;8.568;2022-12-18T06:02:41;41.83;;;15.15;;
44304;SDS011;30019;50.576;8.568;2022-12-18T06:05:06;42.45;;;15.27;;
44304;SDS011;30019;50.576;8.568;2022-12-18T06:07:32;46.15;;;16.73;;
44304;SDS011;30019;50.576;8.568;2022-12-18T06:09:58;45.08;;;17.27;;
44304;SDS011;30019;50.576;8.568;2022-12-18T06:12:23;47.83;;;17.35;;
44304;SDS011;30019;50.576;8.568;2022-12-18T06:14:49;43.63;;;14.85;;
44304;SDS011;30019;50.576;8.568;2022-12-18T06:17:14;51.33;;;16.98;;
44304;SDS011;30019;50.576;8.568;2022-12-18T06:19:40;43.23;;;15.63;;
44304;SDS011;30019;50.576;8.568;2022-12-18T06:22:05;44.33;;;15.55;;
44304;SDS011;30019;50.576;8.568;2022-12-18T06:24:31;52.17;;;17.12;;
44304;SDS011;30019;50.576;8.568;2022-12-18T06:26:58;43.58;;;15.63;;
44304;SDS011;30019;50.576;8.568;2022-12-18T06:29:23;44.47;;;15.68;;
44304;SDS011;30019;50.576;8.568;2022-12-18T06:31:49;54.20;;;18.77;;
44304;SDS011;30019;50.576;8.568;2022-12-18T06:34:14;48.20;;;16.62;;
44304;SDS011;30019;50.576;8.568;2022-12-18T06:36:40;46.85;;;15.77;;
44304;SDS011;30019;50.576;8.568;2022-12-18T06:39:05;49.83;;;16.67;;
44304;SDS011;30019;50.576;8.568;2022-12-18T06:41:31;46.17;;;15.50;;
44304;SDS011;30019;50.576;8.568;2022-12-18T06:43:57;51.72;;;17.35;;
44304;SDS011;30019;50.576;8.568;2022-12-18T06:46:22;55.67;;;18.25;;
44304;SDS011;30019;50.576;8.568;2022-12-18T06:48:49;56.25;;;17.80;;
44304;SDS011;30019;50.576;8.568;2022-12-18T06:51:22;49.13;;;17.33;;
44304;SDS011;30019;50.576;8.568;2022-12-18T06:53:48;46.03;;;16.30;;
44304;SDS011;30019;50.576;8.568;2022-12-18T06:56:14;43.53;;;15.43;;
44304;SDS011;30019;50.576;8.568;2022-12-18T06:58:40;50.88;;;17.10;;
44304;SDS011;30019;50.576;8.568;2022-12-18T07:01:07;45.65;;;17.95;;
44304;SDS011;30019;50.576;8.568;2022-12-18T07:03:34;56.83;;;19.42;;
44304;SDS011;30019;50.576;8.568;2022-12-18T07:06:00;57.20;;;21.20;;
44304;SDS011;30019;50.576;8.568;2022-12-18T07:08:26;61.63;;;21.92;;
44304;SDS011;30019;50.576;8.568;2022-12-18T07:10:53;65.68;;;24.27;;
44304;SDS011;30019;50.576;8.568;2022-12-18T07:13:19;74.82;;;29.42;;
44304;SDS011;30019;50.576;8.568;2022-12-18T07:15:44;61.25;;;24.40;;
44304;SDS011;30019;50.576;8.568;2022-12-18T07:18:10;64.28;;;22.83;;
44304;SDS011;30019;50.576;8.568;2022-12-18T07:20:35;60.08;;;22.95;;
44304;SDS011;30019;50.576;8.568;2022-12-18T07:23:02;51.35;;;18.95;;
44304;SDS011;30019;50.576;8.568;2022-12-18T07:25:28;55.22;;;17.70;;
44304;SDS011;30019;50.576;8.568;2022-12-18T07:27:54;53.70;;;19.48;;
44304;SDS011;30019;50.576;8.568;2022-12-18T07:30:19;48.55;;;17.77;;
44304;SDS011;30019;50.576;8.568;2022-12-18T07:32:45;54.70;;;18.20;;
44304;SDS011;30019;50.576;8.568;2022-12-18T07:35:11;54.72;;;18.42;;
44304;SDS011;30019;50.576;8.568;2022-12-18T07:37:36;48.67;;;16.95;;
44304;SDS011;30019;50.576;8.568;2022-12-18T07:40:02;41.97;;;16.62;;
44304;SDS011;30019;50.576;8.568;2022-12-18T07:42:28;50.33;;;17.65;;
44304;SDS011;30019;50.576;8.568;2022-12-18T07:44:57;51.33;;;17.40;;
44304;SDS011;30019;50.576;8.568;2022-12-18T07:47:23;44.92;;;16.10;;
44304;SDS011;30019;50.576;8.568;2022-12-18T07:49:48;44.05;;;16.42;;
44304;SDS011;30019;50.576;8.568;2022-12-18T07:52:14;46.80;;;16.73;;
44304;SDS011;30019;50.576;8.568;2022-12-18T07:54:40;47.80;;;16.67;;
44304;SDS011;30019;50.576;8.568;2022-12-18T07:57:06;48.55;;;17.30;;
44304;SDS011;30019;50.576;8.568;2022-12-18T07:59:32;49.15;;;16.85;;
44304;SDS011;30019;50.576;8.568;2022-12-18T08:01:58;45.67;;;16.77;;
44304;SDS011;30019;50.576;8.568;2022-12-18T08:04:24;50.55;;;19.02;;
44304;SDS011;30019;50.576;8.568;2022-12-18T08:06:50;50.08;;;19.35;;
44304;SDS011;30019;50.576;8.568;2022-12-18T08:09:15;48.65;;;17.52;;
44304;SDS011;30019;50.576;8.568;2022-12-18T08:11:41;43.35;;;17.10;;
44304;SDS011;30019;50.576;8.568;2022-12-18T08:14:08;44.53;;;16.48;;
44304;SDS011;30019;50.576;8.568;2022-12-18T08:16:33;39.28;;;15.75;;
44304;SDS011;30019;50.576;8.568;2022-12-18T08:18:59;37.00;;;14.35;;
44304;SDS011;30019;50.576;8.568;2022-12-18T08:21:26;40.28;;;15.48;;
44304;SDS011;30019;50.576;8.568;2022-12-18T08:23:53;36.42;;;14.55;;
44304;SDS011;30019;50.576;8.568;2022-12-18T08:26:25;41.50;;;15.07;;
44304;SDS011;30019;50.576;8.568;2022-12-18T08:28:53;35.78;;;13.95;;
44304;SDS011;30019;50.576;8.568;2022-12-18T08:31:23;40.88;;;15.20;;
44304;SDS011;30019;50.576;8.568;2022-12-18T08:33:49;48.10;;;16.50;;
44304;SDS011;30019;50.576;8.568;2022-12-18T08:36:16;39.63;;;16.42;;
44304;SDS011;30019;50.576;8.568;2022-12-18T08:38:42;41.83;;;15.73;;
44304;SDS011;30019;50.576;8.568;2022-12-18T08:41:09;38.40;;;14.93;;
44304;SDS011;30019;50.576;8.568;2022-12-18T08:43:36;38.78;;;15.07;;
44304;SDS011;30019;50.576;8.568;2022-12-18T08:46:21;49.83;;;16.00;;
44304;SDS011;30019;50.576;8.568;2022-12-18T08:48:49;49.08;;;17.55;;
44304;SDS011;30019;50.576;8.568;2022-12-18T08:51:16;43.38;;;17.77;;
44304;SDS011;30019;50.576;8.568;2022-12-18T08:53:42;47.60;;;17.52;;
44304;SDS011;30019;50.576;8.568;2022-12-18T08:56:08;44.95;;;17.10;;
44304;SDS011;30019;50.576;8.568;2022-12-18T08:58:33;42.47;;;16.83;;
44304;SDS011;30019;50.576;8.568;2022-12-18T09:01:03;39.90;;;16.10;;
44304;SDS011;30019;50.576;8.568;2022-12-18T09:03:30;48.17;;;17.48;;
44304;SDS011;30019;50.576;8.568;2022-12-18T09:05:56;44.17;;;17.20;;
44304;SDS011;30019;50.576;8.568;2022-12-18T09:08:21;35.75;;;14.02;;
44304;SDS011;30019;50.576;8.568;2022-12-18T09:10:48;42.13;;;17.33;;
44304;SDS011;30019;50.576;8.568;2022-12-18T09:13:15;39.50;;;15.75;;
44304;SDS011;30019;50.576;8.568;2022-12-18T09:15:42;41.55;;;16.45;;
44304;SDS011;30019;50.576;8.568;2022-12-18T09:18:10;38.92;;;15.93;;
44304;SDS011;30019;50.576;8.568;2022-12-18T09:20:36;38.80;;;16.45;;
44304;SDS011;30019;50.576;8.568;2022-12-18T09:23:02;46.22;;;17.08;;
44304;SDS011;30019;50.576;8.568;2022-12-18T09:25:29;41.83;;;18.05;;
44304;SDS011;30019;50.576;8.568;2022-12-18T09:28:11;45.53;;;16.25;;
44304;SDS011;30019;50.576;8.568;2022-12-18T09:30:40;44.03;;;17.92;;
44304;SDS011;30019;50.576;8.568;2022-12-18T09:33:08;41.75;;;16.85;;
44304;SDS011;30019;50.576;8.568;2022-12-18T09:35:37;44.47;;;17.87;;
44304;SDS011;30019;50.576;8.568;2022-12-18T09:38:03;40.70;;;17.20;;
44304;SDS011;30019;50.576;8.568;2022-12-18T09:40:32;39.33;;;15.88;;
44304;SDS011;30019;50.576;8.568;2022-12-18T09:43:06;37.75;;;15.80;;
44304;SDS011;30019;50.576;8.568;2022-12-18T09:45:41;37.85;;;15.95;;
44304;SDS011;30019;50.576;8.568;2022-12-18T09:48:11;38.58;;;16.73;;
44304;SDS011;30019;50.576;8.568;2022-12-18T09:50:47;41.05;;;16.17;;
44304;SDS011;30019;50.576;8.568;2022-12-18T09:53:17;46.67;;;15.30;;
44304;SDS011;30019;50.576;8.568;2022-12-18T09:55:47;44.65;;;15.75;;
44304;SDS011;30019;50.576;8.568;2022-12-18T10:01:02;41.10;;;15.80;;
44304;SDS011;30019;50.576;8.568;2022-12-18T10:03:34;32.30;;;13.97;;
44304;SDS011;30019;50.576;8.568;2022-12-18T10:14:50;44.20;;;16.50;;
44304;SDS011;30019;50.576;8.568;2022-12-18T10:17:24;32.58;;;13.00;;
44304;SDS011;30019;50.576;8.568;2022-12-18T10:20:29;39.25;;;18.10;;
44304;SDS011;30019;50.576;8.568;2022-12-18T10:26:01;46.00;;;17.65;;
44304;SDS011;30019;50.576;8.568;2022-12-18T10:28:32;39.17;;;17.40;;
44304;SDS011;30019;50.576;8.568;2022-12-18T10:31:25;40.45;;;16.75;;
44304;SDS011;30019;50.576;8.568;2022-12-18T10:33:50;43.70;;;17.45;;
44304;SDS011;30019;50.576;8.568;2022-12-18T10:36:18;36.75;;;17.15;;
44304;SDS011;30019;50.576;8.568;2022-12-18T10:38:43;36.00;;;17.20;;
44304;SDS011;30019;50.576;8.568;2022-12-18T10:43:46;40.03;;;16.25;;
44304;SDS011;30019;50.576;8.568;2022-12-18T10:46:15;38.72;;;15.85;;
44304;SDS011;30019;50.576;8.568;2022-12-18T10:53:57;39.53;;;16.52;;
44304;SDS011;30019;50.576;8.568;2022-12-18T10:56:27;34.20;;;16.52;;
44304;SDS011;30019;50.576;8.568;2022-12-18T10:58:55;28.75;;;12.32;;
44304;SDS011;30019;50.576;8.568;2022-12-18T11:01:23;39.33;;;15.10;;
44304;SDS011;30019;50.576;8.568;2022-12-18T11:06:23;32.67;;;15.00;;
44304;SDS011;30019;50.576;8.568;2022-12-18T11:09:06;29.48;;;14.80;;
44304;SDS011;30019;50.576;8.568;2022-12-18T11:11:48;34.05;;;15.65;;
44304;SDS011;30019;50.576;8.568;2022-12-18T11:16:55;40.10;;;17.10;;
44304;SDS011;30019;50.576;8.568;2022-12-18T11:19:36;32.03;;;15.85;;
44304;SDS011;30019;50.576;8.568;2022-12-18T11:25:19;33.13;;;16.80;;
44304;SDS011;30019;50.576;8.568;2022-12-18T11:27:56;32.33;;;15.52;;
44304;SDS011;30019;50.576;8.568;2022-12-18T11:30:23;41.90;;;18.25;;
44304;SDS011;30019;50.576;8.568;2022-12-18T11:32:55;37.25;;;14.95;;
44304;SDS011;30019;50.576;8.568;2022-12-18T11:35:35;35.08;;;17.55;;
44304;SDS011;30019;50.576;8.568;2022-12-18T11:38:10;38.53;;;18.65;;
44304;SDS011;30019;50.576;8.568;2022-12-18T11:40:51;41.50;;;18.30;;
44304;SDS011;30019;50.576;8.568;2022-12-18T11:43:38;38.58;;;17.33;;
44304;SDS011;30019;50.576;8.568;2022-12-18T11:46:14;39.97;;;18.10;;
44304;SDS011;30019;50.576;8.568;2022-12-18T11:51:13;43.17;;;18.17;;
44304;SDS011;30019;50.576;8.568;2022-12-18T11:53:45;36.70;;;14.93;;
44304;SDS011;30019;50.576;8.568;2022-12-18T11:58:55;38.13;;;17.80;;
44304;SDS011;30019;50.576;8.568;2022-12-18T12:04:20;41.50;;;18.73;;
44304;SDS011;30019;50.576;8.568;2022-12-18T12:10:00;46.55;;;22.17;;
44304;SDS011;30019;50.576;8.568;2022-12-18T12:12:48;45.72;;;19.67;;
44304;SDS011;30019;50.576;8.568;2022-12-18T12:15:25;44.55;;;19.92;;
44304;SDS011;30019;50.576;8.568;2022-12-18T12:18:08;36.17;;;17.08;;
44304;SDS011;30019;50.576;8.568;2022-12-18T12:21:06;40.70;;;19.60;;
44304;SDS011;30019;50.576;8.568;2022-12-18T12:26:23;43.97;;;21.33;;
44304;SDS011;30019;50.576;8.568;2022-12-18T12:29:10;46.65;;;22.40;;
44304;SDS011;30019;50.576;8.568;2022-12-18T12:37:53;50.42;;;21.17;;
44304;SDS011;30019;50.576;8.568;2022-12-18T12:40:39;38.67;;;16.37;;
44304;SDS011;30019;50.576;8.568;2022-12-18T12:43:12;50.33;;;22.80;;
44304;SDS011;30019;50.576;8.568;2022-12-18T12:45:54;54.30;;;22.33;;
44304;SDS011;30019;50.576;8.568;2022-12-18T12:48:41;36.63;;;15.60;;
44304;SDS011;30019;50.576;8.568;2022-12-18T12:54:01;45.88;;;20.95;;
44304;SDS011;30019;50.576;8.568;2022-12-18T12:56:49;47.45;;;21.12;;
44304;SDS011;30019;50.576;8.568;2022-12-18T13:02:21;49.75;;;20.92;;
44304;SDS011;30019;50.576;8.568;2022-12-18T13:20:44;48.85;;;19.95;;
44304;SDS011;30019;50.576;8.568;2022-12-18T13:31:01;60.63;;;23.20;;
44304;SDS011;30019;50.576;8.568;2022-12-18T13:36:00;43.45;;;17.37;;
44304;SDS011;30019;50.576;8.568;2022-12-18T13:41:40;57.08;;;23.33;;
44304;SDS011;30019;50.576;8.568;2022-12-18T13:44:26;67.20;;;25.02;;
44304;SDS011;30019;50.576;8.568;2022-12-18T13:46:59;55.92;;;22.80;;
44304;SDS011;30019;50.576;8.568;2022-12-18T13:49:36;67.87;;;25.12;;
44304;SDS011;30019;50.576;8.568;2022-12-18T13:52:14;57.88;;;22.27;;
44304;SDS011;30019;50.576;8.568;2022-12-18T13:54:45;58.60;;;21.83;;
44304;SDS011;30019;50.576;8.568;2022-12-18T13:59:57;61.65;;;24.73;;
44304;SDS011;30019;50.576;8.568;2022-12-18T14:02:25;64.93;;;26.42;;
44304;SDS011;30019;50.576;8.568;2022-12-18T14:04:53;66.40;;;25.27;;
44304;SDS011;30019;50.576;8.568;2022-12-18T14:07:25;61.40;;;22.62;;
44304;SDS011;30019;50.576;8.568;2022-12-18T14:09:57;60.63;;;23.00;;
44304;SDS011;30019;50.576;8.568;2022-12-18T14:12:26;60.78;;;23.50;;
44304;SDS011;30019;50.576;8.568;2022-12-18T14:18:12;54.67;;;20.23;;
44304;SDS011;30019;50.576;8.568;2022-12-18T14:20:50;55.10;;;21.92;;
44304;SDS011;30019;50.576;8.568;2022-12-18T14:23:27;62.20;;;24.65;;
44304;SDS011;30019;50.576;8.568;2022-12-18T14:25:55;70.05;;;25.25;;
44304;SDS011;30019;50.576;8.568;2022-12-18T14:28:21;70.05;;;27.05;;
44304;SDS011;30019;50.576;8.568;2022-12-18T14:30:50;65.23;;;26.47;;
44304;SDS011;30019;50.576;8.568;2022-12-18T14:33:18;66.45;;;26.05;;
44304;SDS011;30019;50.576;8.568;2022-12-18T14:35:58;51.58;;;19.50;;
44304;SDS011;30019;50.576;8.568;2022-12-18T14:38:33;66.85;;;25.25;;
44304;SDS011;30019;50.576;8.568;2022-12-18T14:41:03;66.62;;;27.00;;
44304;SDS011;30019;50.576;8.568;2022-12-18T14:43:40;63.35;;;24.60;;
44304;SDS011;30019;50.576;8.568;2022-12-18T14:46:31;63.78;;;24.92;;
44304;SDS011;30019;50.576;8.568;2022-12-18T14:49:04;70.10;;;28.45;;
44304;SDS011;30019;50.576;8.568;2022-12-18T14:51:57;70.90;;;26.67;;
44304;SDS011;30019;50.576;8.568;2022-12-18T14:54:25;64.10;;;25.15;;
44304;SDS011;30019;50.576;8.568;2022-12-18T14:59:29;61.47;;;24.30;;
44304;SDS011;30019;50.576;8.568;2022-12-18T15:05:01;63.40;;;24.45;;
44304;SDS011;30019;50.576;8.568;2022-12-18T15:10:14;65.72;;;24.80;;
44304;SDS011;30019;50.576;8.568;2022-12-18T15:20:43;67.80;;;26.10;;
44304;SDS011;30019;50.576;8.568;2022-12-18T15:25:54;69.30;;;25.58;;
44304;SDS011;30019;50.576;8.568;2022-12-18T15:33:44;64.43;;;25.65;;
44304;SDS011;30019;50.576;8.568;2022-12-18T15:36:25;69.72;;;25.65;;
44304;SDS011;30019;50.576;8.568;2022-12-18T15:38:52;66.15;;;26.20;;
44304;SDS011;30019;50.576;8.568;2022-12-18T15:41:20;71.28;;;25.88;;
44304;SDS011;30019;50.576;8.568;2022-12-18T15:43:47;58.85;;;24.10;;
44304;SDS011;30019;50.576;8.568;2022-12-18T15:46:15;69.20;;;26.55;;
44304;SDS011;30019;50.576;8.568;2022-12-18T15:48:44;64.05;;;25.70;;
44304;SDS011;30019;50.576;8.568;2022-12-18T15:51:27;67.32;;;26.77;;
44304;SDS011;30019;50.576;8.568;2022-12-18T15:53:58;62.90;;;24.58;;
44304;SDS011;30019;50.576;8.568;2022-12-18T15:56:25;68.03;;;27.70;;
44304;SDS011;30019;50.576;8.568;2022-12-18T15:59:12;69.12;;;24.75;;
44304;SDS011;30019;50.576;8.568;2022-12-18T16:01:39;65.00;;;24.80;;
44304;SDS011;30019;50.576;8.568;2022-12-18T16:04:15;62.03;;;24.70;;
44304;SDS011;30019;50.576;8.568;2022-12-18T16:06:42;74.90;;;28.62;;
44304;SDS011;30019;50.576;8.568;2022-12-18T16:09:08;70.95;;;25.88;;
44304;SDS011;30019;50.576;8.568;2022-12-18T16:11:35;59.63;;;22.87;;
44304;SDS011;30019;50.576;8.568;2022-12-18T16:14:26;56.42;;;22.42;;
44304;SDS011;30019;50.576;8.568;2022-12-18T16:16:55;66.07;;;25.95;;
44304;SDS011;30019;50.576;8.568;2022-12-18T16:19:22;64.97;;;23.65;;
44304;SDS011;30019;50.576;8.568;2022-12-18T16:21:48;60.80;;;23.80;;
44304;SDS011;30019;50.576;8.568;2022-12-18T16:24:19;56.53;;;24.30;;
44304;SDS011;30019;50.576;8.568;2022-12-18T16:26:47;67.97;;;25.98;;
44304;SDS011;30019;50.576;8.568;2022-12-18T16:29:13;60.40;;;24.23;;
44304;SDS011;30019;50.576;8.568;2022-12-18T16:31:39;59.92;;;21.52;;
44304;SDS011;30019;50.576;8.568;2022-12-18T16:34:12;80.05;;;25.98;;
44304;SDS011;30019;50.576;8.568;2022-12-18T16:36:48;60.30;;;22.58;;
44304;SDS011;30019;50.576;8.568;2022-12-18T16:39:14;57.83;;;24.12;;
44304;SDS011;30019;50.576;8.568;2022-12-18T16:41:40;67.68;;;24.08;;
44304;SDS011;30019;50.576;8.568;2022-12-18T16:44:06;59.95;;;24.17;;
44304;SDS011;30019;50.576;8.568;2022-12-18T16:46:31;55.70;;;21.92;;
44304;SDS011;30019;50.576;8.568;2022-12-18T16:48:57;62.30;;;25.35;;
44304;SDS011;30019;50.576;8.568;2022-12-18T16:51:24;56.83;;;23.30;;
44304;SDS011;30019;50.576;8.568;2022-12-18T16:53:51;55.88;;;23.15;;